Terminal Aerodrome Forecast
Issued by NWS

Home | Current Version | Previous Version | Text Only | Print | Product List | Glossary On
Versions: 1 2 3 4 5 6 7 8 9 10 11 12 13
584
FTUS42 KTBW 271740
TAFPGD
TAF
KPGD 271740Z 2718/2818 04007KT P6SM SCT060 SCT250
     FM272000 02007KT P6SM BKN060
     FM272200 34007KT P6SM BKN060
     FM280100 VRB05KT P6SM SCT060
     FM280400 VRB03KT P6SM FEW040
     FM280800 VRB03KT 5SM BR FEW015
     FM281300 VRB03KT P6SM FEW035
     FM281700 27005KT P6SM SCT050=

USA.gov is the U.S. government's official web portal to all federal, state and local government web resources and services.